Bf Philipp — CQHJ — position and weather

sailwx.info

Track history (hours):
 
Tides and Currents Weather Stations Pressure Air Temp Water Temp Dewpoint Dewpoint Depression Visibility Wind Speed Wind Dir Waves Ship Positions

Bf Philipp

Last reported at 2018-Feb-21 05:28 UTC. Time now 2018-Feb-21 05:47 UTC.
Position N 45°26' E 013°28'.

Length 117 m; draft 4.8 m.

Type: Ship (hazmat cat A). MMSI: 255805585.

Date/timePositionNaut miles runAvg speedWind from/ knotsBaromVisibWave heightAir tempDewpointWater temp
2018-Feb-21 05:28N 45°26' E 013°28'0 0.0
2018-Feb-21 04:58N 45°26' E 013°28'0 0.0
2018-Feb-21 04:28N 45°26' E 013°28'0 0.0
2018-Feb-21 03:55N 45°26' E 013°28'0 0.0
2018-Feb-21 03:28N 45°26' E 013°28'0 0.0
2018-Feb-21 02:59N 45°26' E 013°28'0 0.0
2018-Feb-21 02:30N 45°26' E 013°28'0 0.0
2018-Feb-21 02:00N 45°26' E 013°28'0 0.0
2018-Feb-21 01:30N 45°26' E 013°28'0 0.0
2018-Feb-21 01:00N 45°26' E 013°28'0 0.0
2018-Feb-21 00:30N 45°26' E 013°28'0 0.0
2018-Feb-21 00:00N 45°26' E 013°28'0 0.0
2018-Feb-20 23:30N 45°26' E 013°28'0 0.0
2018-Feb-20 23:00N 45°26' E 013°28'5 9.2
2018-Feb-20 22:30N 45°25' E 013°22'510.7
2018-Feb-20 22:00N 45°23' E 013°14'510.1
2018-Feb-20 21:30N 45°23' E 013°07'510.1
2018-Feb-20 21:00N 45°22' E 013°00'5 9.9
2018-Feb-20 20:30N 45°20' E 012°54'510.0
2018-Feb-20 20:00N 45°18' E 012°47'510.1
2018-Feb-20 19:30N 45°17' E 012°40'510.1
2018-Feb-20 19:00N 45°15' E 012°33'5 9.9
2018-Feb-20 18:30N 45°16' E 012°27'510.8
2018-Feb-20 18:00N 45°20' E 012°21'5 9.1
2018-Feb-20 17:30N 45°22' E 012°15'4 8.5
2018-Feb-20 17:00N 45°27' E 012°16'1 1.1
2018-Feb-20 16:19N 45°27' E 012°15'0 0.0
2018-Feb-20 15:55N 45°27' E 012°15'0 0.0
2018-Feb-20 15:25N 45°27' E 012°15'0 0.0
2018-Feb-20 14:55N 45°27' E 012°15'0 0.0
2018-Feb-20 14:25N 45°27' E 012°15'0 0.0
2018-Feb-20 13:55N 45°27' E 012°15'0 0.0
2018-Feb-20 13:25N 45°27' E 012°15'0 0.0
2018-Feb-20 12:55N 45°27' E 012°15'0 0.0
2018-Feb-20 12:25N 45°27' E 012°15'0 0.0
2018-Feb-20 11:49N 45°27' E 012°15'0 0.0
2018-Feb-20 11:25N 45°27' E 012°15'0 0.0
2018-Feb-20 10:55N 45°27' E 012°15'0 0.0
2018-Feb-20 10:25N 45°27' E 012°15'0 0.0
2018-Feb-20 09:55N 45°27' E 012°15'0 0.0
2018-Feb-20 09:25N 45°27' E 012°15'0 0.0
2018-Feb-20 08:55N 45°27' E 012°15'0 0.0
2018-Feb-20 08:25N 45°27' E 012°15'0 0.0
2018-Feb-20 07:55N 45°27' E 012°15'0 0.0
2018-Feb-20 07:25N 45°27' E 012°15'0 0.0
2018-Feb-20 06:55N 45°27' E 012°15'0 0.0
2018-Feb-20 06:25N 45°27' E 012°15'1 2.3
2018-Feb-20 06:00N 45°26' E 012°16'4 8.5
2018-Feb-20 05:30N 45°22' E 012°15'5 9.6
2018-Feb-20 05:00N 45°20' E 012°21'1 1.3
2018-Feb-20 04:30N 45°20' E 012°22'0 0.0
2018-Feb-20 04:00N 45°20' E 012°22'0 0.0
2018-Feb-20 03:30N 45°20' E 012°22'0 0.0
2018-Feb-20 02:57N 45°20' E 012°22'0 0.0
2018-Feb-20 02:24N 45°20' E 012°22'0 0.0
2018-Feb-20 02:00N 45°20' E 012°22'0 0.0
2018-Feb-20 01:27N 45°20' E 012°22'0 0.0
2018-Feb-20 01:00N 45°20' E 012°22'0 0.0
2018-Feb-20 00:30N 45°20' E 012°22'0 0.0
2018-Feb-20 00:00N 45°20' E 012°22'0 0.1
2018-Feb-19 23:30N 45°21' E 012°22'2 4.3
2018-Feb-19 23:00N 45°19' E 012°24'611.3
2018-Feb-19 22:30N 45°17' E 012°32'612.4
2018-Feb-19 21:59N 45°20' E 012°40'612.4
2018-Feb-19 21:30N 45°23' E 012°48'612.4
2018-Feb-19 21:00N 45°26' E 012°56'612.2
2018-Feb-19 20:30N 45°29' E 013°04'612.2
2018-Feb-19 20:00N 45°31' E 013°11'612.2
2018-Feb-19 19:30N 45°34' E 013°19'612.2
2018-Feb-19 19:00N 45°36' E 013°27'612.2
2018-Feb-19 18:30N 45°38' E 013°35'511.0
2018-Feb-19 18:00N 45°39' E 013°43'2 3.9
2018-Feb-19 17:30N 45°38' E 013°46'0 0.0
2018-Feb-19 17:00N 45°38' E 013°46'0 0.0
2018-Feb-19 16:30N 45°38' E 013°46'0 0.0
2018-Feb-19 16:00N 45°38' E 013°46'0 0.0
2018-Feb-19 15:30N 45°38' E 013°46'0 0.0
2018-Feb-19 15:00N 45°38' E 013°46'0 0.0
2018-Feb-19 14:30N 45°38' E 013°46'0 0.0
2018-Feb-19 14:00N 45°38' E 013°46'0 0.0
2018-Feb-19 13:30N 45°38' E 013°46'0 0.0
2018-Feb-19 13:00N 45°38' E 013°46'0 0.0
2018-Feb-19 12:24N 45°38' E 013°46'0 0.0
2018-Feb-19 12:00N 45°38' E 013°46'0 0.0
2018-Feb-19 11:24N 45°38' E 013°46'0 0.0
2018-Feb-19 11:00N 45°38' E 013°46'1 1.3
2018-Feb-19 10:30N 45°38' E 013°45'3 5.3
2018-Feb-19 10:00N 45°39' E 013°42'1 2.4
2018-Feb-19 09:30N 45°39' E 013°40'510.5
2018-Feb-19 09:00N 45°36' E 013°34'611.2
2018-Feb-19 08:30N 45°33' E 013°28'611.3
2018-Feb-19 08:00N 45°30' E 013°21'611.7
2018-Feb-19 07:30N 45°26' E 013°15'510.9
2018-Feb-19 07:00N 45°20' E 013°13'612.5
2018-Feb-19 06:30N 45°14' E 013°15'611.6
2018-Feb-19 06:00N 45°09' E 013°11'612.5
2018-Feb-19 05:30N 45°04' E 013°05'712.6
2018-Feb-19 04:57N 44°59' E 012°59'612.2
2018-Feb-19 04:29N 44°55' E 012°53'711.9
2018-Feb-19 03:53N 44°50' E 012°47'2211.5
2018-Feb-19 01:58N 44°33' E 012°27'3 0.2
2018-Feb-18 12:53N 44°30' E 012°25'27 1.1
2018-Feb-17 12:04N 44°36' E 013°01'1512.5
2018-Feb-17 10:51N 44°51' E 012°59'612.4
2018-Feb-17 10:24N 44°57' E 012°60'512.4
2018-Feb-17 10:00N 45°02' E 013°01'612.3
2018-Feb-17 09:30N 45°08' E 013°01'612.3
2018-Feb-17 09:00N 45°14' E 013°01'612.3
2018-Feb-17 08:30N 45°20' E 013°01'611.6
2018-Feb-17 08:00N 45°25' E 013°05'612.2
2018-Feb-17 07:30N 45°30' E 013°11'612.1
2018-Feb-17 07:00N 45°33' E 013°18'612.4
2018-Feb-17 06:30N 45°36' E 013°26'612.3
2018-Feb-17 06:00N 45°38' E 013°34'611.7
2018-Feb-17 05:30N 45°39' E 013°42'2 4.8
2018-Feb-17 05:00N 45°38' E 013°46'0 0.0
2018-Feb-17 04:30N 45°38' E 013°46'0 0.0
2018-Feb-17 04:00N 45°38' E 013°46'0 0.0
2018-Feb-17 03:30N 45°38' E 013°46'0 0.0
2018-Feb-17 03:00N 45°38' E 013°46'0 0.0
2018-Feb-17 02:30N 45°38' E 013°46'0 0.0
2018-Feb-17 02:00N 45°38' E 013°46'0 0.0
2018-Feb-17 01:30N 45°38' E 013°46'0 0.0
2018-Feb-17 00:57N 45°38' E 013°46'0 0.0
2018-Feb-17 00:30N 45°38' E 013°46'0 0.0
2018-Feb-17 00:00N 45°38' E 013°46'0 0.0
2018-Feb-16 23:27N 45°38' E 013°46'0 0.0
2018-Feb-16 23:00N 45°38' E 013°46'0 0.0
2018-Feb-16 22:30N 45°38' E 013°46'0 0.0
2018-Feb-16 21:51N 45°38' E 013°46'0 0.0
2018-Feb-16 21:30N 45°38' E 013°46'0 0.0
2018-Feb-16 20:48N 45°38' E 013°46'0 0.0
2018-Feb-16 20:30N 45°38' E 013°46'0 0.0
2018-Feb-16 20:00N 45°38' E 013°46'0 0.0
2018-Feb-16 19:27N 45°38' E 013°46'0 0.0
2018-Feb-16 18:57N 45°38' E 013°46'0 0.0
2018-Feb-16 18:30N 45°38' E 013°46'0 0.0
2018-Feb-16 18:00N 45°38' E 013°46'0 0.0
2018-Feb-16 17:30N 45°38' E 013°46'0 0.0
2018-Feb-16 17:00N 45°38' E 013°46'0 0.0
2018-Feb-16 16:24N 45°38' E 013°46'0 0.0
2018-Feb-16 15:57N 45°38' E 013°46'0 0.0
2018-Feb-16 15:30N 45°38' E 013°46'0 0.0
2018-Feb-16 15:00N 45°38' E 013°46'0 0.0
2018-Feb-16 14:27N 45°38' E 013°46'0 0.0
2018-Feb-16 14:00N 45°38' E 013°46'0 0.0
2018-Feb-16 13:30N 45°38' E 013°46'0 0.0
2018-Feb-16 13:00N 45°38' E 013°46'0 0.0
2018-Feb-16 12:27N 45°38' E 013°46'0 0.0
2018-Feb-16 12:00N 45°38' E 013°46'0 0.0
2018-Feb-16 11:30N 45°38' E 013°46'0 0.0
2018-Feb-16 11:00N 45°38' E 013°46'0 0.0
2018-Feb-16 10:30N 45°38' E 013°46'0 0.0
2018-Feb-16 09:57N 45°38' E 013°46'0 0.0
2018-Feb-16 09:27N 45°38' E 013°46'0 0.0
2018-Feb-16 09:00N 45°38' E 013°46'0 0.0
2018-Feb-16 08:30N 45°38' E 013°46'0 0.0
2018-Feb-16 08:00N 45°38' E 013°46'0 0.0
2018-Feb-16 07:24N 45°38' E 013°46'0 0.0
2018-Feb-16 07:00N 45°38' E 013°46'0 0.0
2018-Feb-16 06:27N 45°38' E 013°46'0 0.0
2018-Feb-16 06:00N 45°38' E 013°46'2 3.9
2018-Feb-16 05:30N 45°39' E 013°43'2 3.9
2018-Feb-16 04:59N 45°39' E 013°40'2 4.7
2018-Feb-16 04:30N 45°38' E 013°37'4 8.0
2018-Feb-16 04:00N 45°35' E 013°33'510.5
2018-Feb-16 03:30N 45°33' E 013°26'510.4
2018-Feb-16 03:00N 45°30' E 013°20'611.7
2018-Feb-16 02:30N 45°25' E 013°15'611.9
2018-Feb-16 02:00N 45°20' E 013°13'612.4
2018-Feb-16 01:30N 45°14' E 013°15'612.4
2018-Feb-16 01:00N 45°08' E 013°18'612.2
2018-Feb-16 00:30N 45°02' E 013°21'612.1
2018-Feb-16 00:00N 44°57' E 013°24'612.1
2018-Feb-15 23:30N 44°51' E 013°29'612.0
2018-Feb-15 23:00N 44°46' E 013°33'811.8
2018-Feb-15 22:18N 44°39' E 013°40'  
2018-Feb-13 01:07N 37°18' E 023°38'212.7
2018-Feb-13 00:58N 37°20' E 023°39'612.0
2018-Feb-13 00:31N 37°25' E 023°40'612.2
2018-Feb-13 00:00N 37°31' E 023°41'612.3
2018-Feb-12 23:31N 37°37' E 023°42'611.9
2018-Feb-12 23:01N 37°43' E 023°40'612.2
2018-Feb-12 22:30N 37°49' E 023°37'611.5
2018-Feb-12 22:01N 37°54' E 023°33'0 0.7
2018-Feb-12 21:28N 37°54' E 023°33'0 0.0
2018-Feb-12 20:58N 37°54' E 023°33'0 0.0
2018-Feb-12 20:28N 37°54' E 023°33'0 0.0
2018-Feb-12 19:58N 37°54' E 023°33'0 0.0
2018-Feb-12 19:28N 37°54' E 023°33'0 0.0
2018-Feb-12 18:58N 37°54' E 023°33'0 0.1
2018-Feb-12 18:28N 37°54' E 023°33'0 0.0
2018-Feb-12 17:58N 37°54' E 023°33'0 0.1
2018-Feb-12 17:28N 37°54' E 023°33'0 0.1
2018-Feb-12 16:58N 37°54' E 023°33'0 0.0
2018-Feb-12 16:28N 37°54' E 023°33'0 0.0
2018-Feb-12 15:58N 37°54' E 023°33'0 0.1
2018-Feb-12 15:25N 37°54' E 023°33'0 0.1
2018-Feb-12 14:58N 37°54' E 023°33'0 0.1
2018-Feb-12 14:28N 37°54' E 023°33'0 0.1
2018-Feb-12 13:58N 37°54' E 023°33'0 0.0
2018-Feb-12 13:28N 37°54' E 023°33'0 0.1
2018-Feb-12 12:58N 37°54' E 023°33'0 0.1
2018-Feb-12 12:28N 37°54' E 023°33'0 0.0
2018-Feb-12 11:58N 37°54' E 023°33'0 0.1
2018-Feb-12 11:28N 37°54' E 023°33'0 0.1
2018-Feb-12 10:58N 37°54' E 023°33'0 0.0
2018-Feb-12 10:28N 37°54' E 023°33'0 0.0
2018-Feb-12 09:58N 37°54' E 023°33'0 0.0
2018-Feb-12 09:28N 37°54' E 023°33'0 0.0
2018-Feb-12 08:58N 37°54' E 023°33'0 0.1
2018-Feb-12 08:28N 37°54' E 023°33'0 0.0
2018-Feb-12 07:58N 37°54' E 023°33'0 0.0
2018-Feb-12 07:28N 37°54' E 023°33'0 0.0
2018-Feb-12 06:58N 37°54' E 023°33'0 0.1
2018-Feb-12 06:28N 37°54' E 023°33'0 0.0
2018-Feb-12 05:58N 37°54' E 023°33'0 0.0
2018-Feb-12 05:28N 37°54' E 023°33'0 0.0
2018-Feb-12 04:58N 37°54' E 023°33'0 0.0
2018-Feb-12 04:28N 37°54' E 023°33'0 0.1
2018-Feb-12 03:58N 37°54' E 023°33'0 0.0
2018-Feb-12 03:28N 37°54' E 023°33'0 0.1
2018-Feb-12 02:58N 37°54' E 023°33'0 0.0
2018-Feb-12 02:25N 37°54' E 023°33'0 0.0
2018-Feb-12 01:58N 37°54' E 023°33'0 0.0
2018-Feb-12 01:28N 37°54' E 023°33'0 0.0
2018-Feb-12 00:58N 37°54' E 023°33'0 0.0
2018-Feb-12 00:28N 37°54' E 023°33'0 0.0
2018-Feb-11 23:58N 37°54' E 023°33'0 0.0
2018-Feb-11 23:28N 37°54' E 023°33'0 0.0
2018-Feb-11 22:58N 37°54' E 023°33'0 0.1
2018-Feb-11 22:28N 37°54' E 023°33'0 0.1
2018-Feb-11 21:58N 37°54' E 023°33'0 0.1
2018-Feb-11 21:28N 37°54' E 023°33'0 0.1
2018-Feb-11 20:58N 37°54' E 023°33'0 0.1
2018-Feb-11 20:28N 37°54' E 023°33'0 0.0
2018-Feb-11 19:58N 37°54' E 023°33'0 0.0
2018-Feb-11 19:28N 37°54' E 023°33'0 0.0
2018-Feb-11 18:58N 37°54' E 023°33'0 0.0
2018-Feb-11 18:28N 37°54' E 023°33'0 0.0
2018-Feb-11 17:52N 37°54' E 023°33'0 0.0
2018-Feb-11 17:28N 37°54' E 023°33'0 0.0
2018-Feb-11 16:58N 37°54' E 023°33'0 0.0
2018-Feb-11 16:28N 37°54' E 023°33'0 0.0
2018-Feb-11 15:58N 37°54' E 023°33'0 0.0
2018-Feb-11 15:28N 37°54' E 023°33'0 0.0
2018-Feb-11 14:58N 37°54' E 023°33'0 0.0
2018-Feb-11 14:28N 37°54' E 023°33'0 0.0
2018-Feb-11 13:58N 37°54' E 023°33'0 0.0
2018-Feb-11 13:28N 37°54' E 023°33'0 0.0
2018-Feb-11 12:58N 37°54' E 023°33'0 0.0
2018-Feb-11 12:28N 37°54' E 023°33'0 0.0
2018-Feb-11 11:58N 37°54' E 023°33'0 0.0
2018-Feb-11 11:28N 37°54' E 023°33'0 0.0
2018-Feb-11 10:58N 37°54' E 023°33'0 0.0
2018-Feb-11 10:28N 37°54' E 023°33'0 0.0
2018-Feb-11 09:58N 37°54' E 023°33'0 0.0
2018-Feb-11 09:28N 37°54' E 023°33'0 0.0
2018-Feb-11 08:58N 37°54' E 023°33'0 0.0
2018-Feb-11 08:28N 37°54' E 023°33'0 0.0
2018-Feb-11 07:58N 37°54' E 023°33'0 0.0
2018-Feb-11 07:28N 37°54' E 023°33'0 0.1
2018-Feb-11 06:58N 37°54' E 023°33'0 0.1
2018-Feb-11 06:28N 37°54' E 023°33'0 0.1
2018-Feb-11 05:58N 37°54' E 023°33'0 0.0
2018-Feb-11 05:31N 37°54' E 023°33'  
Track history (hours):
 
Tides and Currents Weather Stations Pressure Air Temp Water Temp Dewpoint Dewpoint Depression Visibility Wind Speed Wind Dir Waves Ship Positions

Bf Philipp

Last reported at 2018-Feb-21 05:28 UTC. Time now 2018-Feb-21 05:47 UTC.
Position N 45°26' E 013°28'.

Length 117 m; draft 4.8 m.

Type: Ship (hazmat cat A). MMSI: 255805585.

Date/timePositionNaut miles runAvg speedWind from/ knotsBaromVisibWave heightAir tempDewpointWater temp
2018-Feb-21 05:28N 45°26' E 013°28'0 0.0
2018-Feb-21 04:58N 45°26' E 013°28'0 0.0
2018-Feb-21 04:28N 45°26' E 013°28'0 0.0
2018-Feb-21 03:55N 45°26' E 013°28'0 0.0
2018-Feb-21 03:28N 45°26' E 013°28'0 0.0
2018-Feb-21 02:59N 45°26' E 013°28'0 0.0
2018-Feb-21 02:30N 45°26' E 013°28'0 0.0
2018-Feb-21 02:00N 45°26' E 013°28'0 0.0
2018-Feb-21 01:30N 45°26' E 013°28'0 0.0
2018-Feb-21 01:00N 45°26' E 013°28'0 0.0
2018-Feb-21 00:30N 45°26' E 013°28'0 0.0
2018-Feb-21 00:00N 45°26' E 013°28'0 0.0
2018-Feb-20 23:30N 45°26' E 013°28'0 0.0
2018-Feb-20 23:00N 45°26' E 013°28'5 9.2
2018-Feb-20 22:30N 45°25' E 013°22'510.7
2018-Feb-20 22:00N 45°23' E 013°14'510.1
2018-Feb-20 21:30N 45°23' E 013°07'510.1
2018-Feb-20 21:00N 45°22' E 013°00'5 9.9
2018-Feb-20 20:30N 45°20' E 012°54'510.0
2018-Feb-20 20:00N 45°18' E 012°47'510.1
2018-Feb-20 19:30N 45°17' E 012°40'510.1
2018-Feb-20 19:00N 45°15' E 012°33'5 9.9
2018-Feb-20 18:30N 45°16' E 012°27'510.8
2018-Feb-20 18:00N 45°20' E 012°21'5 9.1
2018-Feb-20 17:30N 45°22' E 012°15'4 8.5
2018-Feb-20 17:00N 45°27' E 012°16'1 1.1
2018-Feb-20 16:19N 45°27' E 012°15'0 0.0
2018-Feb-20 15:55N 45°27' E 012°15'0 0.0
2018-Feb-20 15:25N 45°27' E 012°15'0 0.0
2018-Feb-20 14:55N 45°27' E 012°15'0 0.0
2018-Feb-20 14:25N 45°27' E 012°15'0 0.0
2018-Feb-20 13:55N 45°27' E 012°15'0 0.0
2018-Feb-20 13:25N 45°27' E 012°15'0 0.0
2018-Feb-20 12:55N 45°27' E 012°15'0 0.0
2018-Feb-20 12:25N 45°27' E 012°15'0 0.0
2018-Feb-20 11:49N 45°27' E 012°15'0 0.0
2018-Feb-20 11:25N 45°27' E 012°15'0 0.0
2018-Feb-20 10:55N 45°27' E 012°15'0 0.0
2018-Feb-20 10:25N 45°27' E 012°15'0 0.0
2018-Feb-20 09:55N 45°27' E 012°15'0 0.0
2018-Feb-20 09:25N 45°27' E 012°15'0 0.0
2018-Feb-20 08:55N 45°27' E 012°15'0 0.0
2018-Feb-20 08:25N 45°27' E 012°15'0 0.0
2018-Feb-20 07:55N 45°27' E 012°15'0 0.0
2018-Feb-20 07:25N 45°27' E 012°15'0 0.0
2018-Feb-20 06:55N 45°27' E 012°15'0 0.0
2018-Feb-20 06:25N 45°27' E 012°15'1 2.3
2018-Feb-20 06:00N 45°26' E 012°16'4 8.5
2018-Feb-20 05:30N 45°22' E 012°15'5 9.6
2018-Feb-20 05:00N 45°20' E 012°21'1 1.3
2018-Feb-20 04:30N 45°20' E 012°22'0 0.0
2018-Feb-20 04:00N 45°20' E 012°22'0 0.0
2018-Feb-20 03:30N 45°20' E 012°22'0 0.0
2018-Feb-20 02:57N 45°20' E 012°22'0 0.0
2018-Feb-20 02:24N 45°20' E 012°22'0 0.0
2018-Feb-20 02:00N 45°20' E 012°22'0 0.0
2018-Feb-20 01:27N 45°20' E 012°22'0 0.0
2018-Feb-20 01:00N 45°20' E 012°22'0 0.0
2018-Feb-20 00:30N 45°20' E 012°22'0 0.0
2018-Feb-20 00:00N 45°20' E 012°22'0 0.1
2018-Feb-19 23:30N 45°21' E 012°22'2 4.3
2018-Feb-19 23:00N 45°19' E 012°24'611.3
2018-Feb-19 22:30N 45°17' E 012°32'612.4
2018-Feb-19 21:59N 45°20' E 012°40'612.4
2018-Feb-19 21:30N 45°23' E 012°48'612.4
2018-Feb-19 21:00N 45°26' E 012°56'612.2
2018-Feb-19 20:30N 45°29' E 013°04'612.2
2018-Feb-19 20:00N 45°31' E 013°11'612.2
2018-Feb-19 19:30N 45°34' E 013°19'612.2
2018-Feb-19 19:00N 45°36' E 013°27'612.2
2018-Feb-19 18:30N 45°38' E 013°35'511.0
2018-Feb-19 18:00N 45°39' E 013°43'2 3.9
2018-Feb-19 17:30N 45°38' E 013°46'0 0.0
2018-Feb-19 17:00N 45°38' E 013°46'0 0.0
2018-Feb-19 16:30N 45°38' E 013°46'0 0.0
2018-Feb-19 16:00N 45°38' E 013°46'0 0.0
2018-Feb-19 15:30N 45°38' E 013°46'0 0.0
2018-Feb-19 15:00N 45°38' E 013°46'0 0.0
2018-Feb-19 14:30N 45°38' E 013°46'0 0.0
2018-Feb-19 14:00N 45°38' E 013°46'0 0.0
2018-Feb-19 13:30N 45°38' E 013°46'0 0.0
2018-Feb-19 13:00N 45°38' E 013°46'0 0.0
2018-Feb-19 12:24N 45°38' E 013°46'0 0.0
2018-Feb-19 12:00N 45°38' E 013°46'0 0.0
2018-Feb-19 11:24N 45°38' E 013°46'0 0.0
2018-Feb-19 11:00N 45°38' E 013°46'1 1.3
2018-Feb-19 10:30N 45°38' E 013°45'3 5.3
2018-Feb-19 10:00N 45°39' E 013°42'1 2.4
2018-Feb-19 09:30N 45°39' E 013°40'510.5
2018-Feb-19 09:00N 45°36' E 013°34'611.2
2018-Feb-19 08:30N 45°33' E 013°28'611.3
2018-Feb-19 08:00N 45°30' E 013°21'611.7
2018-Feb-19 07:30N 45°26' E 013°15'510.9
2018-Feb-19 07:00N 45°20' E 013°13'612.5
2018-Feb-19 06:30N 45°14' E 013°15'611.6
2018-Feb-19 06:00N 45°09' E 013°11'612.5
2018-Feb-19 05:30N 45°04' E 013°05'712.6
2018-Feb-19 04:57N 44°59' E 012°59'612.2
2018-Feb-19 04:29N 44°55' E 012°53'711.9
2018-Feb-19 03:53N 44°50' E 012°47'2211.5
2018-Feb-19 01:58N 44°33' E 012°27'3 0.2
2018-Feb-18 12:53N 44°30' E 012°25'27 1.1
2018-Feb-17 12:04N 44°36' E 013°01'1512.5
2018-Feb-17 10:51N 44°51' E 012°59'612.4
2018-Feb-17 10:24N 44°57' E 012°60'512.4
2018-Feb-17 10:00N 45°02' E 013°01'612.3
2018-Feb-17 09:30N 45°08' E 013°01'612.3
2018-Feb-17 09:00N 45°14' E 013°01'612.3
2018-Feb-17 08:30N 45°20' E 013°01'611.6
2018-Feb-17 08:00N 45°25' E 013°05'612.2
2018-Feb-17 07:30N 45°30' E 013°11'612.1
2018-Feb-17 07:00N 45°33' E 013°18'612.4
2018-Feb-17 06:30N 45°36' E 013°26'612.3
2018-Feb-17 06:00N 45°38' E 013°34'611.7
2018-Feb-17 05:30N 45°39' E 013°42'2 4.8
2018-Feb-17 05:00N 45°38' E 013°46'0 0.0
2018-Feb-17 04:30N 45°38' E 013°46'0 0.0
2018-Feb-17 04:00N 45°38' E 013°46'0 0.0
2018-Feb-17 03:30N 45°38' E 013°46'0 0.0
2018-Feb-17 03:00N 45°38' E 013°46'0 0.0
2018-Feb-17 02:30N 45°38' E 013°46'0 0.0
2018-Feb-17 02:00N 45°38' E 013°46'0 0.0
2018-Feb-17 01:30N 45°38' E 013°46'0 0.0
2018-Feb-17 00:57N 45°38' E 013°46'0 0.0
2018-Feb-17 00:30N 45°38' E 013°46'0 0.0
2018-Feb-17 00:00N 45°38' E 013°46'0 0.0
2018-Feb-16 23:27N 45°38' E 013°46'0 0.0
2018-Feb-16 23:00N 45°38' E 013°46'0 0.0
2018-Feb-16 22:30N 45°38' E 013°46'0 0.0
2018-Feb-16 21:51N 45°38' E 013°46'0 0.0
2018-Feb-16 21:30N 45°38' E 013°46'0 0.0
2018-Feb-16 20:48N 45°38' E 013°46'0 0.0
2018-Feb-16 20:30N 45°38' E 013°46'0 0.0
2018-Feb-16 20:00N 45°38' E 013°46'0 0.0
2018-Feb-16 19:27N 45°38' E 013°46'0 0.0
2018-Feb-16 18:57N 45°38' E 013°46'0 0.0
2018-Feb-16 18:30N 45°38' E 013°46'0 0.0
2018-Feb-16 18:00N 45°38' E 013°46'0 0.0
2018-Feb-16 17:30N 45°38' E 013°46'0 0.0
2018-Feb-16 17:00N 45°38' E 013°46'0 0.0
2018-Feb-16 16:24N 45°38' E 013°46'0 0.0
2018-Feb-16 15:57N 45°38' E 013°46'0 0.0
2018-Feb-16 15:30N 45°38' E 013°46'0 0.0
2018-Feb-16 15:00N 45°38' E 013°46'0 0.0
2018-Feb-16 14:27N 45°38' E 013°46'0 0.0
2018-Feb-16 14:00N 45°38' E 013°46'0 0.0
2018-Feb-16 13:30N 45°38' E 013°46'0 0.0
2018-Feb-16 13:00N 45°38' E 013°46'0 0.0
2018-Feb-16 12:27N 45°38' E 013°46'0 0.0
2018-Feb-16 12:00N 45°38' E 013°46'0 0.0
2018-Feb-16 11:30N 45°38' E 013°46'0 0.0
2018-Feb-16 11:00N 45°38' E 013°46'0 0.0
2018-Feb-16 10:30N 45°38' E 013°46'0 0.0
2018-Feb-16 09:57N 45°38' E 013°46'0 0.0
2018-Feb-16 09:27N 45°38' E 013°46'0 0.0
2018-Feb-16 09:00N 45°38' E 013°46'0 0.0
2018-Feb-16 08:30N 45°38' E 013°46'0 0.0
2018-Feb-16 08:00N 45°38' E 013°46'0 0.0
2018-Feb-16 07:24N 45°38' E 013°46'0 0.0
2018-Feb-16 07:00N 45°38' E 013°46'0 0.0
2018-Feb-16 06:27N 45°38' E 013°46'0 0.0
2018-Feb-16 06:00N 45°38' E 013°46'2 3.9
2018-Feb-16 05:30N 45°39' E 013°43'2 3.9
2018-Feb-16 04:59N 45°39' E 013°40'2 4.7
2018-Feb-16 04:30N 45°38' E 013°37'4 8.0
2018-Feb-16 04:00N 45°35' E 013°33'510.5
2018-Feb-16 03:30N 45°33' E 013°26'510.4
2018-Feb-16 03:00N 45°30' E 013°20'611.7
2018-Feb-16 02:30N 45°25' E 013°15'611.9
2018-Feb-16 02:00N 45°20' E 013°13'612.4
2018-Feb-16 01:30N 45°14' E 013°15'612.4
2018-Feb-16 01:00N 45°08' E 013°18'612.2
2018-Feb-16 00:30N 45°02' E 013°21'612.1
2018-Feb-16 00:00N 44°57' E 013°24'612.1
2018-Feb-15 23:30N 44°51' E 013°29'612.0
2018-Feb-15 23:00N 44°46' E 013°33'811.8
2018-Feb-15 22:18N 44°39' E 013°40'  
2018-Feb-13 01:07N 37°18' E 023°38'212.7
2018-Feb-13 00:58N 37°20' E 023°39'612.0
2018-Feb-13 00:31N 37°25' E 023°40'612.2
2018-Feb-13 00:00N 37°31' E 023°41'612.3
2018-Feb-12 23:31N 37°37' E 023°42'611.9
2018-Feb-12 23:01N 37°43' E 023°40'612.2
2018-Feb-12 22:30N 37°49' E 023°37'611.5
2018-Feb-12 22:01N 37°54' E 023°33'0 0.7
2018-Feb-12 21:28N 37°54' E 023°33'0 0.0
2018-Feb-12 20:58N 37°54' E 023°33'0 0.0
2018-Feb-12 20:28N 37°54' E 023°33'0 0.0
2018-Feb-12 19:58N 37°54' E 023°33'0 0.0
2018-Feb-12 19:28N 37°54' E 023°33'0 0.0
2018-Feb-12 18:58N 37°54' E 023°33'0 0.1
2018-Feb-12 18:28N 37°54' E 023°33'0 0.0
2018-Feb-12 17:58N 37°54' E 023°33'0 0.1
2018-Feb-12 17:28N 37°54' E 023°33'0 0.1
2018-Feb-12 16:58N 37°54' E 023°33'0 0.0
2018-Feb-12 16:28N 37°54' E 023°33'0 0.0
2018-Feb-12 15:58N 37°54' E 023°33'0 0.1
2018-Feb-12 15:25N 37°54' E 023°33'0 0.1
2018-Feb-12 14:58N 37°54' E 023°33'0 0.1
2018-Feb-12 14:28N 37°54' E 023°33'0 0.1
2018-Feb-12 13:58N 37°54' E 023°33'0 0.0
2018-Feb-12 13:28N 37°54' E 023°33'0 0.1
2018-Feb-12 12:58N 37°54' E 023°33'0 0.1
2018-Feb-12 12:28N 37°54' E 023°33'0 0.0
2018-Feb-12 11:58N 37°54' E 023°33'0 0.1
2018-Feb-12 11:28N 37°54' E 023°33'0 0.1
2018-Feb-12 10:58N 37°54' E 023°33'0 0.0
2018-Feb-12 10:28N 37°54' E 023°33'0 0.0
2018-Feb-12 09:58N 37°54' E 023°33'0 0.0
2018-Feb-12 09:28N 37°54' E 023°33'0 0.0
2018-Feb-12 08:58N 37°54' E 023°33'0 0.1
2018-Feb-12 08:28N 37°54' E 023°33'0 0.0
2018-Feb-12 07:58N 37°54' E 023°33'0 0.0
2018-Feb-12 07:28N 37°54' E 023°33'0 0.0
2018-Feb-12 06:58N 37°54' E 023°33'0 0.1
2018-Feb-12 06:28N 37°54' E 023°33'0 0.0
2018-Feb-12 05:58N 37°54' E 023°33'0 0.0
2018-Feb-12 05:28N 37°54' E 023°33'0 0.0
2018-Feb-12 04:58N 37°54' E 023°33'0 0.0
2018-Feb-12 04:28N 37°54' E 023°33'0 0.1
2018-Feb-12 03:58N 37°54' E 023°33'0 0.0
2018-Feb-12 03:28N 37°54' E 023°33'0 0.1
2018-Feb-12 02:58N 37°54' E 023°33'0 0.0
2018-Feb-12 02:25N 37°54' E 023°33'0 0.0
2018-Feb-12 01:58N 37°54' E 023°33'0 0.0
2018-Feb-12 01:28N 37°54' E 023°33'0 0.0
2018-Feb-12 00:58N 37°54' E 023°33'0 0.0
2018-Feb-12 00:28N 37°54' E 023°33'0 0.0
2018-Feb-11 23:58N 37°54' E 023°33'0 0.0
2018-Feb-11 23:28N 37°54' E 023°33'0 0.0
2018-Feb-11 22:58N 37°54' E 023°33'0 0.1
2018-Feb-11 22:28N 37°54' E 023°33'0 0.1
2018-Feb-11 21:58N 37°54' E 023°33'0 0.1
2018-Feb-11 21:28N 37°54' E 023°33'0 0.1
2018-Feb-11 20:58N 37°54' E 023°33'0 0.1
2018-Feb-11 20:28N 37°54' E 023°33'0 0.0
2018-Feb-11 19:58N 37°54' E 023°33'0 0.0
2018-Feb-11 19:28N 37°54' E 023°33'0 0.0
2018-Feb-11 18:58N 37°54' E 023°33'0 0.0
2018-Feb-11 18:28N 37°54' E 023°33'0 0.0
2018-Feb-11 17:52N 37°54' E 023°33'0 0.0
2018-Feb-11 17:28N 37°54' E 023°33'0 0.0
2018-Feb-11 16:58N 37°54' E 023°33'0 0.0
2018-Feb-11 16:28N 37°54' E 023°33'0 0.0
2018-Feb-11 15:58N 37°54' E 023°33'0 0.0
2018-Feb-11 15:28N 37°54' E 023°33'0 0.0
2018-Feb-11 14:58N 37°54' E 023°33'0 0.0
2018-Feb-11 14:28N 37°54' E 023°33'0 0.0
2018-Feb-11 13:58N 37°54' E 023°33'0 0.0
2018-Feb-11 13:28N 37°54' E 023°33'0 0.0
2018-Feb-11 12:58N 37°54' E 023°33'0 0.0
2018-Feb-11 12:28N 37°54' E 023°33'0 0.0
2018-Feb-11 11:58N 37°54' E 023°33'0 0.0
2018-Feb-11 11:28N 37°54' E 023°33'0 0.0
2018-Feb-11 10:58N 37°54' E 023°33'0 0.0
2018-Feb-11 10:28N 37°54' E 023°33'0 0.0
2018-Feb-11 09:58N 37°54' E 023°33'0 0.0
2018-Feb-11 09:28N 37°54' E 023°33'0 0.0
2018-Feb-11 08:58N 37°54' E 023°33'0 0.0
2018-Feb-11 08:28N 37°54' E 023°33'0 0.0
2018-Feb-11 07:58N 37°54' E 023°33'0 0.0
2018-Feb-11 07:28N 37°54' E 023°33'0 0.1
2018-Feb-11 06:58N 37°54' E 023°33'0 0.1
2018-Feb-11 06:28N 37°54' E 023°33'0 0.1
2018-Feb-11 05:58N 37°54' E 023°33'0 0.0
2018-Feb-11 05:31N 37°54' E 023°33'  

Dump ship's entire track history